sensor_id;sensor_type;location;lat;lon;timestamp;temperature;humidity
36716;DHT22;22699;51.034;3.730;2024-01-15T00:00:48;3.40;99.90
36716;DHT22;22699;51.034;3.730;2024-01-15T00:03:14;3.50;99.90
36716;DHT22;22699;51.034;3.730;2024-01-15T00:05:40;3.60;99.90
36716;DHT22;22699;51.034;3.730;2024-01-15T00:08:08;3.90;99.90
36716;DHT22;22699;51.034;3.730;2024-01-15T00:10:33;4.10;99.90
36716;DHT22;22699;51.034;3.730;2024-01-15T00:13:01;4.20;99.90
36716;DHT22;22699;51.034;3.730;2024-01-15T00:15:28;4.20;99.90
36716;DHT22;22699;51.034;3.730;2024-01-15T00:17:56;4.10;99.90
36716;DHT22;22699;51.034;3.730;2024-01-15T00:20:21;3.90;99.90
36716;DHT22;22699;51.034;3.730;2024-01-15T00:22:47;3.90;99.90
36716;DHT22;22699;51.034;3.730;2024-01-15T00:25:13;4.20;99.90
36716;DHT22;22699;51.034;3.730;2024-01-15T00:27:39;4.00;99.90
36716;DHT22;22699;51.034;3.730;2024-01-15T00:30:05;3.90;99.90
36716;DHT22;22699;51.034;3.730;2024-01-15T00:32:31;3.80;99.90
36716;DHT22;22699;51.034;3.730;2024-01-15T00:34:57;4.10;99.90
36716;DHT22;22699;51.034;3.730;2024-01-15T00:37:22;4.20;99.90
36716;DHT22;22699;51.034;3.730;2024-01-15T00:39:49;4.70;99.90
36716;DHT22;22699;51.034;3.730;2024-01-15T00:42:14;4.40;99.90
36716;DHT22;22699;51.034;3.730;2024-01-15T00:44:40;4.40;99.90
36716;DHT22;22699;51.034;3.730;2024-01-15T00:47:07;4.80;99.90
36716;DHT22;22699;51.034;3.730;2024-01-15T00:49:34;4.20;99.90
36716;DHT22;22699;51.034;3.730;2024-01-15T00:52:00;4.60;99.90
36716;DHT22;22699;51.034;3.730;2024-01-15T00:54:26;4.30;99.90
36716;DHT22;22699;51.034;3.730;2024-01-15T00:56:52;4.50;99.90
36716;DHT22;22699;51.034;3.730;2024-01-15T00:59:21;4.70;99.90
36716;DHT22;22699;51.034;3.730;2024-01-15T01:01:50;4.70;99.90
36716;DHT22;22699;51.034;3.730;2024-01-15T01:04:26;4.80;99.90
36716;DHT22;22699;51.034;3.730;2024-01-15T01:06:51;4.40;99.90
36716;DHT22;22699;51.034;3.730;2024-01-15T01:09:18;4.20;99.90
36716;DHT22;22699;51.034;3.730;2024-01-15T01:11:45;3.80;99.90
36716;DHT22;22699;51.034;3.730;2024-01-15T01:14:12;3.60;99.90
36716;DHT22;22699;51.034;3.730;2024-01-15T01:16:40;3.70;99.90
36716;DHT22;22699;51.034;3.730;2024-01-15T01:19:07;3.70;99.90
36716;DHT22;22699;51.034;3.730;2024-01-15T01:21:33;3.60;99.90
36716;DHT22;22699;51.034;3.730;2024-01-15T01:23:59;3.40;99.90
36716;DHT22;22699;51.034;3.730;2024-01-15T01:26:24;3.40;99.90
36716;DHT22;22699;51.034;3.730;2024-01-15T01:28:50;3.60;99.90
36716;DHT22;22699;51.034;3.730;2024-01-15T01:31:17;3.70;99.90
36716;DHT22;22699;51.034;3.730;2024-01-15T01:33:42;3.60;99.90
36716;DHT22;22699;51.034;3.730;2024-01-15T01:36:09;3.60;99.90
36716;DHT22;22699;51.034;3.730;2024-01-15T01:38:35;3.60;99.90
36716;DHT22;22699;51.034;3.730;2024-01-15T01:41:01;3.60;99.90
36716;DHT22;22699;51.034;3.730;2024-01-15T01:43:27;3.50;99.90
36716;DHT22;22699;51.034;3.730;2024-01-15T01:45:54;3.60;99.90
36716;DHT22;22699;51.034;3.730;2024-01-15T01:48:22;3.50;99.90
36716;DHT22;22699;51.034;3.730;2024-01-15T01:50:49;3.50;99.90
36716;DHT22;22699;51.034;3.730;2024-01-15T01:53:16;3.50;99.90
36716;DHT22;22699;51.034;3.730;2024-01-15T01:55:43;3.50;99.90
36716;DHT22;22699;51.034;3.730;2024-01-15T01:58:09;3.80;99.90
36716;DHT22;22699;51.034;3.730;2024-01-15T02:00:36;3.80;99.90
36716;DHT22;22699;51.034;3.730;2024-01-15T02:03:03;3.70;99.90
36716;DHT22;22699;51.034;3.730;2024-01-15T02:05:32;3.60;99.90
36716;DHT22;22699;51.034;3.730;2024-01-15T02:07:59;3.50;99.90
36716;DHT22;22699;51.034;3.730;2024-01-15T02:10:25;3.50;99.90
36716;DHT22;22699;51.034;3.730;2024-01-15T02:12:50;3.30;99.90
36716;DHT22;22699;51.034;3.730;2024-01-15T02:15:18;3.50;99.90
36716;DHT22;22699;51.034;3.730;2024-01-15T02:18:10;3.40;99.90
36716;DHT22;22699;51.034;3.730;2024-01-15T02:20:36;3.60;99.90
36716;DHT22;22699;51.034;3.730;2024-01-15T02:23:09;3.80;99.90
36716;DHT22;22699;51.034;3.730;2024-01-15T02:25:43;3.90;99.90
36716;DHT22;22699;51.034;3.730;2024-01-15T02:28:11;3.90;99.90
36716;DHT22;22699;51.034;3.730;2024-01-15T02:30:37;4.40;99.90
36716;DHT22;22699;51.034;3.730;2024-01-15T02:33:10;3.70;99.90
36716;DHT22;22699;51.034;3.730;2024-01-15T02:35:36;3.60;99.90
36716;DHT22;22699;51.034;3.730;2024-01-15T02:38:03;3.40;99.90
36716;DHT22;22699;51.034;3.730;2024-01-15T02:40:29;3.50;99.90
36716;DHT22;22699;51.034;3.730;2024-01-15T02:42:55;3.60;99.90
36716;DHT22;22699;51.034;3.730;2024-01-15T02:45:23;3.50;99.90
36716;DHT22;22699;51.034;3.730;2024-01-15T02:47:49;3.50;99.90
36716;DHT22;22699;51.034;3.730;2024-01-15T02:50:17;3.60;99.90
36716;DHT22;22699;51.034;3.730;2024-01-15T02:52:44;3.60;99.90
36716;DHT22;22699;51.034;3.730;2024-01-15T02:55:11;3.60;99.90
36716;DHT22;22699;51.034;3.730;2024-01-15T02:57:37;3.50;99.90
36716;DHT22;22699;51.034;3.730;2024-01-15T03:00:03;3.60;99.90
36716;DHT22;22699;51.034;3.730;2024-01-15T03:02:29;3.50;99.90
36716;DHT22;22699;51.034;3.730;2024-01-15T03:04:57;3.70;99.90
36716;DHT22;22699;51.034;3.730;2024-01-15T03:07:24;4.10;99.90
36716;DHT22;22699;51.034;3.730;2024-01-15T03:09:51;3.70;99.90
36716;DHT22;22699;51.034;3.730;2024-01-15T03:12:17;3.70;99.90
36716;DHT22;22699;51.034;3.730;2024-01-15T03:14:45;3.50;99.90
36716;DHT22;22699;51.034;3.730;2024-01-15T03:17:11;4.40;99.90
36716;DHT22;22699;51.034;3.730;2024-01-15T03:19:37;4.40;99.90
36716;DHT22;22699;51.034;3.730;2024-01-15T03:22:03;3.90;99.90
36716;DHT22;22699;51.034;3.730;2024-01-15T03:24:29;3.90;99.90
36716;DHT22;22699;51.034;3.730;2024-01-15T03:26:55;4.00;99.90
36716;DHT22;22699;51.034;3.730;2024-01-15T03:29:21;4.00;99.90
36716;DHT22;22699;51.034;3.730;2024-01-15T03:31:47;4.30;99.90
36716;DHT22;22699;51.034;3.730;2024-01-15T03:34:14;4.10;99.90
36716;DHT22;22699;51.034;3.730;2024-01-15T03:36:39;4.20;99.90
36716;DHT22;22699;51.034;3.730;2024-01-15T03:39:06;4.30;99.90
36716;DHT22;22699;51.034;3.730;2024-01-15T03:41:31;4.30;99.90
36716;DHT22;22699;51.034;3.730;2024-01-15T03:43:58;4.40;99.90
36716;DHT22;22699;51.034;3.730;2024-01-15T03:46:26;4.40;99.90
36716;DHT22;22699;51.034;3.730;2024-01-15T03:48:53;4.20;99.90
36716;DHT22;22699;51.034;3.730;2024-01-15T03:51:25;4.20;99.90
36716;DHT22;22699;51.034;3.730;2024-01-15T03:53:51;3.90;99.90
36716;DHT22;22699;51.034;3.730;2024-01-15T03:56:20;3.70;99.90
36716;DHT22;22699;51.034;3.730;2024-01-15T03:58:49;4.10;99.90
36716;DHT22;22699;51.034;3.730;2024-01-15T04:01:15;4.30;99.90
36716;DHT22;22699;51.034;3.730;2024-01-15T04:03:41;4.10;99.90
36716;DHT22;22699;51.034;3.730;2024-01-15T04:06:08;4.20;99.90
36716;DHT22;22699;51.034;3.730;2024-01-15T04:08:34;4.30;99.90
36716;DHT22;22699;51.034;3.730;2024-01-15T04:11:00;4.30;99.90
36716;DHT22;22699;51.034;3.730;2024-01-15T04:13:27;4.20;99.90
36716;DHT22;22699;51.034;3.730;2024-01-15T04:15:53;4.20;99.90
36716;DHT22;22699;51.034;3.730;2024-01-15T04:18:19;4.20;99.90
36716;DHT22;22699;51.034;3.730;2024-01-15T04:20:45;4.20;99.90
36716;DHT22;22699;51.034;3.730;2024-01-15T04:23:11;4.30;99.90
36716;DHT22;22699;51.034;3.730;2024-01-15T04:25:37;4.50;99.90
36716;DHT22;22699;51.034;3.730;2024-01-15T04:28:03;4.30;99.90
36716;DHT22;22699;51.034;3.730;2024-01-15T04:30:28;4.20;99.90
36716;DHT22;22699;51.034;3.730;2024-01-15T04:32:54;4.30;99.90
36716;DHT22;22699;51.034;3.730;2024-01-15T04:35:20;4.40;99.90
36716;DHT22;22699;51.034;3.730;2024-01-15T04:37:46;4.20;99.90
36716;DHT22;22699;51.034;3.730;2024-01-15T04:40:12;4.10;99.90
36716;DHT22;22699;51.034;3.730;2024-01-15T04:42:38;4.00;99.90
36716;DHT22;22699;51.034;3.730;2024-01-15T04:45:04;3.90;99.90
36716;DHT22;22699;51.034;3.730;2024-01-15T04:47:30;3.80;99.90
36716;DHT22;22699;51.034;3.730;2024-01-15T04:49:57;3.80;99.90
36716;DHT22;22699;51.034;3.730;2024-01-15T04:52:22;4.00;99.90
36716;DHT22;22699;51.034;3.730;2024-01-15T04:54:49;4.00;99.90
36716;DHT22;22699;51.034;3.730;2024-01-15T04:57:15;4.00;99.90
36716;DHT22;22699;51.034;3.730;2024-01-15T04:59:42;4.30;99.90
36716;DHT22;22699;51.034;3.730;2024-01-15T05:02:09;4.20;99.90
36716;DHT22;22699;51.034;3.730;2024-01-15T05:04:35;4.00;99.90
36716;DHT22;22699;51.034;3.730;2024-01-15T05:07:01;4.10;99.90
36716;DHT22;22699;51.034;3.730;2024-01-15T05:09:27;4.10;99.90
36716;DHT22;22699;51.034;3.730;2024-01-15T05:11:56;4.00;99.90
36716;DHT22;22699;51.034;3.730;2024-01-15T05:14:25;3.90;99.90
36716;DHT22;22699;51.034;3.730;2024-01-15T05:16:51;3.70;99.90
36716;DHT22;22699;51.034;3.730;2024-01-15T05:19:18;3.80;99.90
36716;DHT22;22699;51.034;3.730;2024-01-15T05:21:44;3.50;99.90
36716;DHT22;22699;51.034;3.730;2024-01-15T05:24:09;3.50;99.90
36716;DHT22;22699;51.034;3.730;2024-01-15T05:26:35;3.50;99.90
36716;DHT22;22699;51.034;3.730;2024-01-15T05:29:00;3.30;99.90
36716;DHT22;22699;51.034;3.730;2024-01-15T05:31:27;3.10;99.90
36716;DHT22;22699;51.034;3.730;2024-01-15T05:33:53;3.10;99.90
36716;DHT22;22699;51.034;3.730;2024-01-15T05:36:19;3.00;99.90
36716;DHT22;22699;51.034;3.730;2024-01-15T05:38:44;2.90;99.90
36716;DHT22;22699;51.034;3.730;2024-01-15T05:41:10;2.90;99.90
36716;DHT22;22699;51.034;3.730;2024-01-15T05:43:36;3.10;99.90
36716;DHT22;22699;51.034;3.730;2024-01-15T05:46:03;3.10;99.90
36716;DHT22;22699;51.034;3.730;2024-01-15T05:48:30;2.90;99.90
36716;DHT22;22699;51.034;3.730;2024-01-15T05:50:56;2.90;99.90
36716;DHT22;22699;51.034;3.730;2024-01-15T05:53:23;3.10;99.90
36716;DHT22;22699;51.034;3.730;2024-01-15T05:55:49;3.30;99.90
36716;DHT22;22699;51.034;3.730;2024-01-15T05:58:16;3.50;99.90
36716;DHT22;22699;51.034;3.730;2024-01-15T06:00:42;3.40;99.90
36716;DHT22;22699;51.034;3.730;2024-01-15T06:03:08;3.40;99.90
36716;DHT22;22699;51.034;3.730;2024-01-15T06:05:35;3.30;99.90
36716;DHT22;22699;51.034;3.730;2024-01-15T06:08:02;3.50;99.90
36716;DHT22;22699;51.034;3.730;2024-01-15T06:10:27;3.50;99.90
36716;DHT22;22699;51.034;3.730;2024-01-15T06:12:56;3.50;99.90
36716;DHT22;22699;51.034;3.730;2024-01-15T06:15:22;3.60;99.90
36716;DHT22;22699;51.034;3.730;2024-01-15T06:17:47;3.50;99.90
36716;DHT22;22699;51.034;3.730;2024-01-15T06:20:13;3.60;99.90
36716;DHT22;22699;51.034;3.730;2024-01-15T06:22:39;3.50;99.90
36716;DHT22;22699;51.034;3.730;2024-01-15T06:25:08;3.50;99.90
36716;DHT22;22699;51.034;3.730;2024-01-15T06:27:34;3.50;99.90
36716;DHT22;22699;51.034;3.730;2024-01-15T06:30:00;3.40;99.90
36716;DHT22;22699;51.034;3.730;2024-01-15T06:32:26;3.30;99.90
36716;DHT22;22699;51.034;3.730;2024-01-15T06:34:52;3.20;99.90
36716;DHT22;22699;51.034;3.730;2024-01-15T06:37:17;3.30;99.90
36716;DHT22;22699;51.034;3.730;2024-01-15T06:39:45;3.30;99.90
36716;DHT22;22699;51.034;3.730;2024-01-15T06:42:11;3.30;99.90
36716;DHT22;22699;51.034;3.730;2024-01-15T06:44:37;3.30;99.90
36716;DHT22;22699;51.034;3.730;2024-01-15T06:47:03;3.30;99.90
36716;DHT22;22699;51.034;3.730;2024-01-15T06:49:32;3.20;99.90
36716;DHT22;22699;51.034;3.730;2024-01-15T06:51:59;3.10;99.90
36716;DHT22;22699;51.034;3.730;2024-01-15T06:54:25;3.10;99.90
36716;DHT22;22699;51.034;3.730;2024-01-15T06:56:52;3.00;99.90
36716;DHT22;22699;51.034;3.730;2024-01-15T06:59:18;3.00;99.90
36716;DHT22;22699;51.034;3.730;2024-01-15T07:01:47;3.10;99.90
36716;DHT22;22699;51.034;3.730;2024-01-15T07:04:14;3.20;99.90
36716;DHT22;22699;51.034;3.730;2024-01-15T07:06:42;3.10;99.90
36716;DHT22;22699;51.034;3.730;2024-01-15T07:09:09;3.20;99.90
36716;DHT22;22699;51.034;3.730;2024-01-15T07:11:36;3.00;99.90
36716;DHT22;22699;51.034;3.730;2024-01-15T07:14:04;3.10;99.90
36716;DHT22;22699;51.034;3.730;2024-01-15T07:16:29;3.00;99.90
36716;DHT22;22699;51.034;3.730;2024-01-15T07:18:55;2.90;99.90
36716;DHT22;22699;51.034;3.730;2024-01-15T07:21:21;2.70;99.90
36716;DHT22;22699;51.034;3.730;2024-01-15T07:23:47;2.70;99.90
36716;DHT22;22699;51.034;3.730;2024-01-15T07:26:13;3.10;99.90
36716;DHT22;22699;51.034;3.730;2024-01-15T07:28:39;2.90;99.90
36716;DHT22;22699;51.034;3.730;2024-01-15T07:31:05;2.90;99.90
36716;DHT22;22699;51.034;3.730;2024-01-15T07:33:31;2.80;99.90
36716;DHT22;22699;51.034;3.730;2024-01-15T07:35:58;2.80;99.90
36716;DHT22;22699;51.034;3.730;2024-01-15T07:38:24;2.80;99.90
36716;DHT22;22699;51.034;3.730;2024-01-15T07:40:49;2.80;99.90
36716;DHT22;22699;51.034;3.730;2024-01-15T07:43:18;2.90;99.90
36716;DHT22;22699;51.034;3.730;2024-01-15T07:45:47;2.80;99.90
36716;DHT22;22699;51.034;3.730;2024-01-15T07:48:15;3.10;99.90
36716;DHT22;22699;51.034;3.730;2024-01-15T07:50:43;3.20;99.90
36716;DHT22;22699;51.034;3.730;2024-01-15T07:53:12;3.10;99.90
36716;DHT22;22699;51.034;3.730;2024-01-15T07:55:40;3.10;99.90
36716;DHT22;22699;51.034;3.730;2024-01-15T07:58:07;3.00;99.90
36716;DHT22;22699;51.034;3.730;2024-01-15T08:00:33;2.90;99.90
36716;DHT22;22699;51.034;3.730;2024-01-15T08:02:58;3.10;99.90
36716;DHT22;22699;51.034;3.730;2024-01-15T08:05:25;3.40;99.90
36716;DHT22;22699;51.034;3.730;2024-01-15T08:07:51;3.40;99.90
36716;DHT22;22699;51.034;3.730;2024-01-15T08:10:16;4.60;99.90
36716;DHT22;22699;51.034;3.730;2024-01-15T08:12:44;4.40;99.90
36716;DHT22;22699;51.034;3.730;2024-01-15T08:15:12;5.10;99.90
36716;DHT22;22699;51.034;3.730;2024-01-15T08:17:37;5.60;99.90
36716;DHT22;22699;51.034;3.730;2024-01-15T08:20:03;6.10;99.90
36716;DHT22;22699;51.034;3.730;2024-01-15T08:22:30;6.60;99.90
36716;DHT22;22699;51.034;3.730;2024-01-15T08:24:56;6.90;99.90
36716;DHT22;22699;51.034;3.730;2024-01-15T08:27:25;6.70;99.90
36716;DHT22;22699;51.034;3.730;2024-01-15T08:29:51;6.30;99.90
36716;DHT22;22699;51.034;3.730;2024-01-15T08:32:17;6.70;99.90
36716;DHT22;22699;51.034;3.730;2024-01-15T08:34:44;6.80;99.90
36716;DHT22;22699;51.034;3.730;2024-01-15T08:37:09;7.50;99.90
36716;DHT22;22699;51.034;3.730;2024-01-15T08:39:36;8.30;99.20
36716;DHT22;22699;51.034;3.730;2024-01-15T08:42:06;9.30;98.40
36716;DHT22;22699;51.034;3.730;2024-01-15T08:44:41;10.30;96.90
36716;DHT22;22699;51.034;3.730;2024-01-15T08:47:10;11.30;93.70
36716;DHT22;22699;51.034;3.730;2024-01-15T08:49:35;12.30;91.20
36716;DHT22;22699;51.034;3.730;2024-01-15T08:52:02;13.30;89.80
36716;DHT22;22699;51.034;3.730;2024-01-15T08:54:27;14.30;87.40
36716;DHT22;22699;51.034;3.730;2024-01-15T08:56:53;15.00;83.70
36716;DHT22;22699;51.034;3.730;2024-01-15T08:59:19;15.00;79.60
36716;DHT22;22699;51.034;3.730;2024-01-15T09:01:50;15.40;77.70
36716;DHT22;22699;51.034;3.730;2024-01-15T09:04:16;15.60;73.90
36716;DHT22;22699;51.034;3.730;2024-01-15T09:06:47;16.10;72.00
36716;DHT22;22699;51.034;3.730;2024-01-15T09:09:13;16.70;72.40
36716;DHT22;22699;51.034;3.730;2024-01-15T09:11:43;17.00;70.90
36716;DHT22;22699;51.034;3.730;2024-01-15T09:14:08;17.20;68.80
36716;DHT22;22699;51.034;3.730;2024-01-15T09:16:35;17.40;68.70
36716;DHT22;22699;51.034;3.730;2024-01-15T09:19:00;17.70;68.10
36716;DHT22;22699;51.034;3.730;2024-01-15T09:21:26;17.50;65.70
36716;DHT22;22699;51.034;3.730;2024-01-15T09:23:51;16.70;68.00
36716;DHT22;22699;51.034;3.730;2024-01-15T09:26:17;16.60;66.80
36716;DHT22;22699;51.034;3.730;2024-01-15T09:28:43;16.20;67.00
36716;DHT22;22699;51.034;3.730;2024-01-15T09:31:08;15.40;67.00
36716;DHT22;22699;51.034;3.730;2024-01-15T09:33:34;14.80;68.60
36716;DHT22;22699;51.034;3.730;2024-01-15T09:36:03;14.10;70.30
36716;DHT22;22699;51.034;3.730;2024-01-15T09:38:30;13.70;70.90
36716;DHT22;22699;51.034;3.730;2024-01-15T09:40:57;13.40;72.00
36716;DHT22;22699;51.034;3.730;2024-01-15T09:43:23;12.30;72.90
36716;DHT22;22699;51.034;3.730;2024-01-15T09:45:50;11.30;76.30
36716;DHT22;22699;51.034;3.730;2024-01-15T09:48:16;10.20;78.80
36716;DHT22;22699;51.034;3.730;2024-01-15T09:50:42;9.40;81.20
36716;DHT22;22699;51.034;3.730;2024-01-15T09:53:09;9.00;84.10
36716;DHT22;22699;51.034;3.730;2024-01-15T09:55:38;8.30;86.10
36716;DHT22;22699;51.034;3.730;2024-01-15T09:58:04;7.80;88.20
36716;DHT22;22699;51.034;3.730;2024-01-15T10:00:30;7.60;90.20
36716;DHT22;22699;51.034;3.730;2024-01-15T10:02:58;6.90;90.90
36716;DHT22;22699;51.034;3.730;2024-01-15T10:05:26;6.80;92.10
36716;DHT22;22699;51.034;3.730;2024-01-15T10:07:54;6.50;92.60
36716;DHT22;22699;51.034;3.730;2024-01-15T10:10:21;6.20;92.90
36716;DHT22;22699;51.034;3.730;2024-01-15T10:12:48;6.10;93.90
36716;DHT22;22699;51.034;3.730;2024-01-15T10:15:14;6.30;94.10
36716;DHT22;22699;51.034;3.730;2024-01-15T10:17:40;5.70;95.10
36716;DHT22;22699;51.034;3.730;2024-01-15T10:20:10;5.60;95.30
36716;DHT22;22699;51.034;3.730;2024-01-15T10:22:41;5.60;95.70
36716;DHT22;22699;51.034;3.730;2024-01-15T10:25:12;5.60;96.00
36716;DHT22;22699;51.034;3.730;2024-01-15T10:27:39;5.70;96.40
36716;DHT22;22699;51.034;3.730;2024-01-15T10:30:07;5.80;96.00
36716;DHT22;22699;51.034;3.730;2024-01-15T10:32:34;5.90;96.40
36716;DHT22;22699;51.034;3.730;2024-01-15T10:35:00;5.80;96.50
36716;DHT22;22699;51.034;3.730;2024-01-15T10:37:27;5.90;96.40
36716;DHT22;22699;51.034;3.730;2024-01-15T10:39:53;5.80;96.30
36716;DHT22;22699;51.034;3.730;2024-01-15T10:42:19;6.00;96.50
36716;DHT22;22699;51.034;3.730;2024-01-15T10:44:46;6.90;96.50
36716;DHT22;22699;51.034;3.730;2024-01-15T10:47:12;6.10;96.10
36716;DHT22;22699;51.034;3.730;2024-01-15T10:49:39;6.20;96.10
36716;DHT22;22699;51.034;3.730;2024-01-15T10:52:05;6.10;96.00
36716;DHT22;22699;51.034;3.730;2024-01-15T10:54:32;5.90;96.30
36716;DHT22;22699;51.034;3.730;2024-01-15T10:56:57;6.00;96.50
36716;DHT22;22699;51.034;3.730;2024-01-15T10:59:24;6.30;96.90
36716;DHT22;22699;51.034;3.730;2024-01-15T11:01:51;5.90;96.50
36716;DHT22;22699;51.034;3.730;2024-01-15T11:04:20;6.00;96.10
36716;DHT22;22699;51.034;3.730;2024-01-15T11:06:49;6.20;96.10
36716;DHT22;22699;51.034;3.730;2024-01-15T11:09:15;5.80;96.30
36716;DHT22;22699;51.034;3.730;2024-01-15T11:11:47;5.70;96.60
36716;DHT22;22699;51.034;3.730;2024-01-15T11:14:46;5.70;96.50
36716;DHT22;22699;51.034;3.730;2024-01-15T11:17:14;6.30;96.50
36716;DHT22;22699;51.034;3.730;2024-01-15T11:19:47;5.00;96.70
36716;DHT22;22699;51.034;3.730;2024-01-15T11:25:02;6.60;97.00
36716;DHT22;22699;51.034;3.730;2024-01-15T11:30:13;5.70;97.10
36716;DHT22;22699;51.034;3.730;2024-01-15T11:32:40;5.60;97.60
36716;DHT22;22699;51.034;3.730;2024-01-15T11:35:11;5.70;97.60
36716;DHT22;22699;51.034;3.730;2024-01-15T11:42:49;6.00;97.30
36716;DHT22;22699;51.034;3.730;2024-01-15T11:45:20;6.00;97.60
36716;DHT22;22699;51.034;3.730;2024-01-15T11:50:43;5.40;98.50
36716;DHT22;22699;51.034;3.730;2024-01-15T11:53:36;5.70;98.60
36716;DHT22;22699;51.034;3.730;2024-01-15T11:56:09;6.30;97.90
36716;DHT22;22699;51.034;3.730;2024-01-15T11:58:36;6.70;97.70
36716;DHT22;22699;51.034;3.730;2024-01-15T12:01:03;6.40;97.50
36716;DHT22;22699;51.034;3.730;2024-01-15T12:03:32;6.60;97.10
36716;DHT22;22699;51.034;3.730;2024-01-15T12:06:01;6.70;98.40
36716;DHT22;22699;51.034;3.730;2024-01-15T12:08:27;6.80;96.40
36716;DHT22;22699;51.034;3.730;2024-01-15T12:10:53;6.60;96.00
36716;DHT22;22699;51.034;3.730;2024-01-15T12:13:19;7.00;96.60
36716;DHT22;22699;51.034;3.730;2024-01-15T12:15:46;6.40;96.80
36716;DHT22;22699;51.034;3.730;2024-01-15T12:18:17;7.00;97.00
36716;DHT22;22699;51.034;3.730;2024-01-15T12:20:44;6.20;97.50
36716;DHT22;22699;51.034;3.730;2024-01-15T12:23:12;6.80;97.70
36716;DHT22;22699;51.034;3.730;2024-01-15T12:25:39;6.90;97.30
36716;DHT22;22699;51.034;3.730;2024-01-15T12:28:05;7.00;96.90
36716;DHT22;22699;51.034;3.730;2024-01-15T12:30:34;6.60;97.70
36716;DHT22;22699;51.034;3.730;2024-01-15T12:33:05;7.10;97.20
36716;DHT22;22699;51.034;3.730;2024-01-15T12:35:31;7.30;97.20
36716;DHT22;22699;51.034;3.730;2024-01-15T12:38:00;6.20;97.50
36716;DHT22;22699;51.034;3.730;2024-01-15T12:40:27;6.30;97.60
36716;DHT22;22699;51.034;3.730;2024-01-15T12:42:53;6.70;97.80
36716;DHT22;22699;51.034;3.730;2024-01-15T12:45:19;6.30;97.70
36716;DHT22;22699;51.034;3.730;2024-01-15T12:47:46;6.40;97.90
36716;DHT22;22699;51.034;3.730;2024-01-15T12:50:13;6.30;97.80
36716;DHT22;22699;51.034;3.730;2024-01-15T12:52:42;7.10;98.10
36716;DHT22;22699;51.034;3.730;2024-01-15T12:55:08;6.70;97.70
36716;DHT22;22699;51.034;3.730;2024-01-15T12:57:35;7.50;97.70
36716;DHT22;22699;51.034;3.730;2024-01-15T13:00:01;7.80;97.20
36716;DHT22;22699;51.034;3.730;2024-01-15T13:02:29;7.00;96.60
36716;DHT22;22699;51.034;3.730;2024-01-15T13:04:55;6.90;96.70
36716;DHT22;22699;51.034;3.730;2024-01-15T13:07:21;7.10;96.50
36716;DHT22;22699;51.034;3.730;2024-01-15T13:09:47;7.10;96.60
36716;DHT22;22699;51.034;3.730;2024-01-15T13:12:12;7.80;96.60
36716;DHT22;22699;51.034;3.730;2024-01-15T13:14:38;7.20;96.90
36716;DHT22;22699;51.034;3.730;2024-01-15T13:17:04;7.60;96.00
36716;DHT22;22699;51.034;3.730;2024-01-15T13:19:30;7.10;96.50
36716;DHT22;22699;51.034;3.730;2024-01-15T13:21:59;6.70;96.50
36716;DHT22;22699;51.034;3.730;2024-01-15T13:24:26;7.30;97.00
36716;DHT22;22699;51.034;3.730;2024-01-15T13:26:52;6.40;96.90
36716;DHT22;22699;51.034;3.730;2024-01-15T13:29:18;7.10;97.20
36716;DHT22;22699;51.034;3.730;2024-01-15T13:31:44;6.30;97.40
36716;DHT22;22699;51.034;3.730;2024-01-15T13:34:13;6.30;97.60
36716;DHT22;22699;51.034;3.730;2024-01-15T13:36:42;6.40;97.60
36716;DHT22;22699;51.034;3.730;2024-01-15T13:39:11;6.40;97.30
36716;DHT22;22699;51.034;3.730;2024-01-15T13:41:37;7.40;97.10
36716;DHT22;22699;51.034;3.730;2024-01-15T13:44:04;6.50;97.10
36716;DHT22;22699;51.034;3.730;2024-01-15T13:46:33;6.50;97.10
36716;DHT22;22699;51.034;3.730;2024-01-15T13:49:01;6.40;97.50
36716;DHT22;22699;51.034;3.730;2024-01-15T13:51:28;6.30;97.50
36716;DHT22;22699;51.034;3.730;2024-01-15T13:53:56;6.80;98.00
36716;DHT22;22699;51.034;3.730;2024-01-15T13:56:24;6.20;98.40
36716;DHT22;22699;51.034;3.730;2024-01-15T13:58:50;5.90;99.00
36716;DHT22;22699;51.034;3.730;2024-01-15T14:01:20;6.50;99.90
36716;DHT22;22699;51.034;3.730;2024-01-15T14:03:49;5.70;99.90
36716;DHT22;22699;51.034;3.730;2024-01-15T14:06:15;5.70;99.90
36716;DHT22;22699;51.034;3.730;2024-01-15T14:08:43;5.70;99.90
36716;DHT22;22699;51.034;3.730;2024-01-15T14:11:09;5.80;99.90
36716;DHT22;22699;51.034;3.730;2024-01-15T14:13:36;6.20;99.90
36716;DHT22;22699;51.034;3.730;2024-01-15T14:16:04;6.10;99.90
36716;DHT22;22699;51.034;3.730;2024-01-15T14:18:30;5.90;99.90
36716;DHT22;22699;51.034;3.730;2024-01-15T14:20:56;6.30;99.90
36716;DHT22;22699;51.034;3.730;2024-01-15T14:23:24;6.20;99.70
36716;DHT22;22699;51.034;3.730;2024-01-15T14:25:49;6.40;99.10
36716;DHT22;22699;51.034;3.730;2024-01-15T14:28:16;6.30;99.00
36716;DHT22;22699;51.034;3.730;2024-01-15T14:30:42;6.80;99.00
36716;DHT22;22699;51.034;3.730;2024-01-15T14:33:07;6.60;99.20
36716;DHT22;22699;51.034;3.730;2024-01-15T14:35:33;6.70;99.50
36716;DHT22;22699;51.034;3.730;2024-01-15T14:37:59;6.50;99.50
36716;DHT22;22699;51.034;3.730;2024-01-15T14:40:27;6.70;99.70
36716;DHT22;22699;51.034;3.730;2024-01-15T14:42:54;6.50;99.90
36716;DHT22;22699;51.034;3.730;2024-01-15T14:45:20;5.20;99.60
36716;DHT22;22699;51.034;3.730;2024-01-15T14:47:49;6.10;99.70
36716;DHT22;22699;51.034;3.730;2024-01-15T14:50:18;6.30;99.00
36716;DHT22;22699;51.034;3.730;2024-01-15T14:52:46;6.30;98.90
36716;DHT22;22699;51.034;3.730;2024-01-15T14:55:14;6.40;98.50
36716;DHT22;22699;51.034;3.730;2024-01-15T14:57:41;6.60;99.00
36716;DHT22;22699;51.034;3.730;2024-01-15T15:00:09;6.50;99.20
36716;DHT22;22699;51.034;3.730;2024-01-15T15:02:38;5.80;99.50
36716;DHT22;22699;51.034;3.730;2024-01-15T15:05:05;5.80;99.90
36716;DHT22;22699;51.034;3.730;2024-01-15T15:07:34;5.80;99.90
36716;DHT22;22699;51.034;3.730;2024-01-15T15:10:03;6.30;99.90
36716;DHT22;22699;51.034;3.730;2024-01-15T15:15:00;5.50;99.90
36716;DHT22;22699;51.034;3.730;2024-01-15T15:17:34;5.60;99.90
36716;DHT22;22699;51.034;3.730;2024-01-15T15:20:00;6.60;99.90
36716;DHT22;22699;51.034;3.730;2024-01-15T15:22:28;5.70;99.90
36716;DHT22;22699;51.034;3.730;2024-01-15T15:24:53;5.70;99.90
36716;DHT22;22699;51.034;3.730;2024-01-15T15:27:20;5.60;99.90
36716;DHT22;22699;51.034;3.730;2024-01-15T15:29:46;6.20;99.90
36716;DHT22;22699;51.034;3.730;2024-01-15T15:32:14;5.60;99.90
36716;DHT22;22699;51.034;3.730;2024-01-15T15:34:40;6.20;99.90
36716;DHT22;22699;51.034;3.730;2024-01-15T15:37:06;5.90;99.90
36716;DHT22;22699;51.034;3.730;2024-01-15T15:39:32;6.00;99.90
36716;DHT22;22699;51.034;3.730;2024-01-15T15:42:01;5.80;99.90
36716;DHT22;22699;51.034;3.730;2024-01-15T15:44:30;5.90;99.90
36716;DHT22;22699;51.034;3.730;2024-01-15T15:46:57;6.40;99.90
36716;DHT22;22699;51.034;3.730;2024-01-15T15:49:26;5.70;99.90
36716;DHT22;22699;51.034;3.730;2024-01-15T15:52:02;5.90;99.90
36716;DHT22;22699;51.034;3.730;2024-01-15T15:54:28;5.50;99.90
36716;DHT22;22699;51.034;3.730;2024-01-15T15:56:57;5.50;99.90
36716;DHT22;22699;51.034;3.730;2024-01-15T15:59:23;5.30;99.90